Atkinson, North Carolina
Current Conditions -  °F | °C
As of 9:53 PM on Friday 31 Oct 2014 (Local Time) from KILM Reporting Station
Clear Clear  
Wind Chill: 51°   Ceiling: Unl
Heat Index: 51°   Visibility: 10mi
Dew Point: 45°   Wind: 3mph
Humidity: 80%   Direction: 40°NE
Pressure: 29.79"   Gusts: NA
Location:  34.53°N, 78.17°W
Report Text: KILM 010153Z 04003KT 10SM CLR 11/07 A2979 RMK AO2 SLP086 T01060072
Loading
Personal Weather Stations






























Interactive Weather Map
Tropical Storm Tracking
New forecast layout! Learn more

10-Day Weather Forecast

Advertisements
Track Severe Weather on mobile